KTRK

Truckee-Tahoe Airport

Truckee, California, USA
METAR KTRK 170004Z 17023G29KT 10SM SCT050 OVC075 07/M03 A3005 RMK ACSL DSNT N-SE AND NW
Observed Flight Rules
Dec-17 @ 00:04 UTC (20 minutes ago) Visual Flight Rules
Wind Visibility Clouds
170° at 23 knots
 Gusting to 29 knots
10 miles
  • Scattered at 5,000' AGL
  • Overcast at 7,500' AGL
Temperatures Readings
Current 7°C / 45°F
Dewpoint -3°C / 27°F
Humidity 49%
Altimeter 30.05" Hg
Pressure 1018 hPa
Elevation 1798
METAR KTRK 170004Z 17023G29KT 10SM SCT050 OVC075 07/M03 A3005 RMK ACSL DSNT N-SE AND NW
Observed Flight Rules
Dec-17 @ 00:04 UTC
(20 minutes ago)
VFR
Wind Visibility
170° at 23 knots
 Gusting to 29 knots
10 miles
Clouds
  • Scattered at 5,000' AGL
  • Overcast at 7,500' AGL
Temperature Dewpoint
7°C / 45°F -3°C / 27°F
Humidity Altimeter Pressure
49% 30.05" Hg 1018 hPa